createdAt,value
2024-01-20T00:03:24.699Z,100209.13
2024-01-20T00:08:28.048Z,100214.16
2024-01-20T00:13:31.401Z,100208.19
2024-01-20T00:18:35.152Z,100209.97
2024-01-20T00:23:39.116Z,100210.31
2024-01-20T00:28:42.754Z,100201.50
2024-01-20T00:33:47.758Z,100196.28
2024-01-20T00:38:50.916Z,100187.69
2024-01-20T00:43:53.942Z,100200.97
2024-01-20T00:48:57.134Z,100203.25
2024-01-20T00:54:00.070Z,100216.84
2024-01-20T00:59:02.996Z,100208.19
2024-01-20T01:04:05.924Z,100218.91
2024-01-20T01:09:09.624Z,100222.03
2024-01-20T01:14:13.268Z,100225.22
2024-01-20T01:19:17.333Z,100227.34
2024-01-20T01:24:20.198Z,100233.38
2024-01-20T01:29:23.174Z,100231.00
2024-01-20T01:34:26.202Z,100235.88
2024-01-20T01:39:29.076Z,100238.41
2024-01-20T01:44:32.113Z,100236.28
2024-01-20T01:49:35.170Z,100233.72
2024-01-20T01:54:38.109Z,100234.22
2024-01-20T01:59:42.429Z,100241.56
2024-01-20T02:04:45.473Z,100247.38
2024-01-20T02:09:48.449Z,100257.25
2024-01-20T02:14:52.515Z,100247.31
2024-01-20T02:19:55.439Z,100247.19
2024-01-20T02:24:58.484Z,100244.50
2024-01-20T02:30:01.430Z,100247.88
2024-01-20T02:35:05.142Z,100258.38
2024-01-20T02:40:09.203Z,100243.22
2024-01-20T02:45:12.328Z,100253.84
2024-01-20T02:50:15.786Z,100255.84
2024-01-20T02:55:18.711Z,100250.78
2024-01-20T03:00:21.815Z,100259.72
2024-01-20T03:05:25.100Z,100276.16
2024-01-20T03:10:27.899Z,100278.78
2024-01-20T03:15:30.916Z,100281.22
2024-01-20T03:20:33.730Z,100289.09
2024-01-20T03:25:36.589Z,100302.19
2024-01-20T03:30:39.498Z,100287.34
2024-01-20T03:35:42.461Z,100305.44
2024-01-20T03:40:45.713Z,100296.34
2024-01-20T03:45:48.731Z,100308.84
2024-01-20T03:50:51.700Z,100307.91
2024-01-20T03:55:54.879Z,100317.53
2024-01-20T04:00:57.778Z,100316.94
2024-01-20T04:06:00.697Z,100318.19
2024-01-20T04:11:03.740Z,100328.06
2024-01-20T04:16:07.299Z,100327.16
2024-01-20T04:21:10.972Z,100322.50
2024-01-20T04:26:13.810Z,100329.06
2024-01-20T04:31:16.768Z,100322.19
2024-01-20T04:36:19.602Z,100333.59
2024-01-20T04:41:25.480Z,100337.97
2024-01-20T04:46:28.349Z,100343.78
2024-01-20T04:51:31.292Z,100337.97
2024-01-20T04:56:34.187Z,100365.25
2024-01-20T05:01:38.928Z,100365.16
2024-01-20T05:06:47.552Z,100364.53
2024-01-20T05:11:50.665Z,100361.66
2024-01-20T05:16:53.739Z,100362.94
2024-01-20T05:21:56.741Z,100371.38
2024-01-20T05:27:00.461Z,100361.97
2024-01-20T05:32:03.686Z,100361.88
2024-01-20T05:37:06.619Z,100375.16
2024-01-20T05:42:09.597Z,100380.75
2024-01-20T05:47:12.473Z,100375.94
2024-01-20T05:52:15.260Z,100384.09
2024-01-20T05:57:18.172Z,100386.88
2024-01-20T06:02:21.789Z,100384.56
2024-01-20T06:07:24.628Z,100384.72
2024-01-20T06:12:27.597Z,100402.25
2024-01-20T06:17:30.615Z,100414.41
2024-01-20T06:22:33.801Z,100412.78
2024-01-20T06:27:37.257Z,100420.22
2024-01-20T06:32:40.971Z,100421.59
2024-01-20T06:37:43.996Z,100418.59
2024-01-20T06:42:46.973Z,100416.91
2024-01-20T06:47:50.044Z,100424.66
2024-01-20T06:52:53.064Z,100424.72
2024-01-20T06:57:56.801Z,100428.06
2024-01-20T07:03:00.237Z,100428.13
2024-01-20T07:08:03.486Z,100435.28
2024-01-20T07:13:06.852Z,100439.44
2024-01-20T07:18:10.029Z,100431.28
2024-01-20T07:23:13.060Z,100433.66
2024-01-20T07:28:15.866Z,100443.94
2024-01-20T07:33:18.930Z,100445.16
2024-01-20T07:38:21.889Z,100460.84
2024-01-20T07:43:25.301Z,100461.03
2024-01-20T07:48:29.077Z,100478.50
2024-01-20T07:53:32.103Z,100486.09
2024-01-20T07:58:35.058Z,100490.88
2024-01-20T08:03:38.112Z,100489.44
2024-01-20T08:08:41.260Z,100486.53
2024-01-20T08:13:45.149Z,100501.69
2024-01-20T08:18:48.678Z,100510.06
2024-01-20T08:23:51.943Z,100512.19
2024-01-20T08:28:54.820Z,100511.41
2024-01-20T08:34:06.746Z,100523.59
2024-01-20T08:39:12.394Z,100521.22
2024-01-20T08:44:18.229Z,100533.03
2024-01-20T08:49:21.540Z,100544.38
2024-01-20T08:54:29.208Z,100541.41
2024-01-20T08:59:32.316Z,100536.97
2024-01-20T09:04:36.330Z,100543.34
2024-01-20T09:09:39.590Z,100549.91
2024-01-20T09:14:43.018Z,100547.34
2024-01-20T09:19:54.317Z,100545.53
2024-01-20T09:25:00.649Z,100543.22
2024-01-20T09:30:07.648Z,100544.34
2024-01-20T09:35:11.985Z,100549.81
2024-01-20T09:40:17.780Z,100551.81
2024-01-20T09:45:21.710Z,100560.34
2024-01-20T09:50:25.107Z,100547.66
2024-01-20T09:55:31.191Z,100531.44
2024-01-20T10:00:39.577Z,100523.06
2024-01-20T10:05:43.061Z,100531.03
2024-01-20T10:10:46.984Z,100527.94
2024-01-20T10:15:52.364Z,100530.72
2024-01-20T10:21:21.475Z,100533.09
2024-01-20T10:26:32.143Z,100537.09
2024-01-20T10:31:38.505Z,100541.47
2024-01-20T10:36:47.814Z,100541.63
2024-01-20T10:42:00.078Z,100548.78
2024-01-20T10:47:16.966Z,100557.78
2024-01-20T10:52:23.164Z,100559.38
2024-01-20T10:57:34.007Z,100553.59
2024-01-20T11:02:40.686Z,100565.50
2024-01-20T11:07:56.223Z,100570.53
2024-01-20T11:13:07.534Z,100557.41
2024-01-20T11:18:23.942Z,100545.56
2024-01-20T11:23:29.001Z,100555.66
2024-01-20T11:28:34.796Z,100547.31
2024-01-20T11:33:40.365Z,100544.78
2024-01-20T11:38:45.322Z,100537.03
2024-01-20T11:43:48.925Z,100522.72
2024-01-20T11:48:54.936Z,100522.22
2024-01-20T11:54:00.001Z,100530.56
2024-01-20T11:59:03.071Z,100523.91
2024-01-20T12:04:07.172Z,100518.97
2024-01-20T12:09:13.794Z,100514.88
2024-01-20T12:14:17.324Z,100512.09
2024-01-20T12:19:21.516Z,100505.16
2024-01-20T12:24:26.844Z,100508.38
2024-01-20T12:29:32.608Z,100505.53
2024-01-20T12:34:36.182Z,100494.56
2024-01-20T12:39:41.678Z,100491.31
2024-01-20T12:44:45.827Z,100501.03
2024-01-20T12:49:50.694Z,100503.38
2024-01-20T12:54:59.187Z,100499.47
2024-01-20T13:00:03.955Z,100508.22
2024-01-20T13:05:07.362Z,100507.00
2024-01-20T13:10:11.968Z,100502.72
2024-01-20T13:15:15.661Z,100514.88
2024-01-20T13:20:18.942Z,100508.22
2024-01-20T13:25:21.949Z,100506.16
2024-01-20T13:30:25.785Z,100509.59
2024-01-20T13:35:28.917Z,100514.59
2024-01-20T13:40:31.807Z,100507.81
2024-01-20T13:45:35.858Z,100508.88
2024-01-20T13:50:38.748Z,100515.19
2024-01-20T13:55:41.726Z,100517.91
2024-01-20T14:00:45.005Z,100522.66
2024-01-20T14:05:50.184Z,100531.13
2024-01-20T14:10:53.937Z,100529.81
2024-01-20T14:15:57.645Z,100539.47
2024-01-20T14:21:00.711Z,100537.16
2024-01-20T14:26:03.839Z,100538.66
2024-01-20T14:31:06.786Z,100546.78
2024-01-20T14:36:10.879Z,100542.28
2024-01-20T14:41:15.003Z,100551.94
2024-01-20T14:46:17.805Z,100559.88
2024-01-20T14:51:20.804Z,100560.72
2024-01-20T14:56:27.270Z,100571.50
2024-01-20T15:01:31.333Z,100586.75
2024-01-20T15:06:34.716Z,100581.81
2024-01-20T15:11:37.921Z,100589.31
2024-01-20T15:16:41.208Z,100598.38
2024-01-20T15:21:44.065Z,100603.84
2024-01-20T15:26:47.771Z,100610.09
2024-01-20T15:31:51.814Z,100617.69
2024-01-20T15:36:54.804Z,100622.06
2024-01-20T15:41:57.869Z,100636.38
2024-01-20T15:47:00.990Z,100646.47
2024-01-20T15:52:04.307Z,100659.88
2024-01-20T15:57:09.905Z,100654.84
2024-01-20T16:02:13.234Z,100658.31
2024-01-20T16:07:16.633Z,100665.56
2024-01-20T16:12:20.505Z,100672.72
2024-01-20T16:17:24.382Z,100678.28
2024-01-20T16:22:30.496Z,100671.03
2024-01-20T16:27:34.533Z,100685.47
2024-01-20T16:32:37.607Z,100697.28
2024-01-20T16:37:43.273Z,100712.66
2024-01-20T16:42:46.576Z,100721.00
2024-01-20T16:47:53.492Z,100724.63
2024-01-20T16:52:58.613Z,100718.69
2024-01-20T16:58:01.593Z,100734.00
2024-01-20T17:03:07.405Z,100740.47
2024-01-20T17:08:10.825Z,100749.16
2024-01-20T17:13:15.321Z,100753.59
2024-01-20T17:18:18.636Z,100755.69
2024-01-20T17:23:22.091Z,100757.44
2024-01-20T17:28:26.629Z,100754.78
2024-01-20T17:33:29.772Z,100761.84
2024-01-20T17:38:37.944Z,100759.50
2024-01-20T17:43:42.009Z,100775.59
2024-01-20T17:48:45.188Z,100780.22
2024-01-20T17:53:48.605Z,100784.41
2024-01-20T17:58:51.506Z,100795.84
2024-01-20T18:03:55.394Z,100795.50
2024-01-20T18:08:59.126Z,100801.00
2024-01-20T18:14:02.384Z,100810.69
2024-01-20T18:19:05.614Z,100812.66
2024-01-20T18:24:09.483Z,100814.88
2024-01-20T18:29:13.625Z,100816.38
2024-01-20T18:34:17.483Z,100819.44
2024-01-20T18:45:11.569Z,100835.84
2024-01-20T18:50:16.333Z,100835.31
2024-01-20T18:55:19.668Z,100846.84
2024-01-20T19:00:22.767Z,100857.75
2024-01-20T19:05:26.445Z,100863.53
2024-01-20T19:10:32.914Z,100871.47
2024-01-20T19:15:36.313Z,100873.34
2024-01-20T19:20:41.864Z,100874.78
2024-01-20T19:25:45.278Z,100874.22
2024-01-20T19:30:48.455Z,100877.41
2024-01-20T19:35:51.884Z,100878.50
2024-01-20T19:40:56.656Z,100881.84
2024-01-20T19:45:59.731Z,100887.91
2024-01-20T19:51:02.995Z,100898.94
2024-01-20T19:56:07.357Z,100902.00
2024-01-20T20:01:11.148Z,100903.31
2024-01-20T20:06:14.931Z,100890.81
2024-01-20T20:11:20.272Z,100901.66
2024-01-20T20:16:23.648Z,100907.31
2024-01-20T20:21:27.267Z,100914.56
2024-01-20T20:26:31.296Z,100918.16
2024-01-20T20:31:34.365Z,100915.41
2024-01-20T20:36:39.101Z,100928.91
2024-01-20T20:41:44.027Z,100921.22
2024-01-20T20:46:47.260Z,100919.53
2024-01-20T20:51:51.439Z,100926.44
2024-01-20T20:56:54.922Z,100925.59
2024-01-20T21:01:58.047Z,100929.44
2024-01-20T21:07:04.256Z,100940.38
2024-01-20T21:12:07.776Z,100940.19
2024-01-20T21:17:10.893Z,100948.31
2024-01-20T21:22:14.111Z,100950.38
2024-01-20T21:27:17.236Z,100957.72
2024-01-20T21:32:22.859Z,100954.97
2024-01-20T21:37:26.334Z,100969.41
2024-01-20T21:42:30.667Z,100970.09
2024-01-20T21:47:34.140Z,100978.72
2024-01-20T21:52:37.624Z,100978.06
2024-01-20T21:57:43.019Z,100991.78
2024-01-20T22:02:46.069Z,100994.94
2024-01-20T22:07:49.555Z,100996.94
2024-01-20T22:12:54.657Z,100998.81
2024-01-20T22:17:58.300Z,101003.72
2024-01-20T22:23:01.359Z,101009.19
2024-01-20T22:28:04.775Z,101013.09
2024-01-20T22:33:08.402Z,101012.16
2024-01-20T22:38:12.178Z,101035.78
2024-01-20T22:43:15.364Z,101037.31
2024-01-20T22:48:18.569Z,101031.47
2024-01-20T22:53:21.776Z,101033.59
2024-01-20T22:58:24.809Z,101029.22
2024-01-20T23:03:28.635Z,101029.84
2024-01-20T23:08:32.518Z,101039.34
2024-01-20T23:13:36.196Z,101035.63
2024-01-20T23:18:39.247Z,101030.28
2024-01-20T23:23:42.635Z,101034.91
2024-01-20T23:28:45.971Z,101038.13
2024-01-20T23:33:49.500Z,101040.44
2024-01-20T23:38:52.900Z,101040.81
2024-01-20T23:43:55.804Z,101036.22
2024-01-20T23:48:59.396Z,101028.59
2024-01-20T23:54:02.485Z,101035.97
2024-01-20T23:59:06.447Z,101034.28
